createdAt,value
2018-05-02T00:00:28.537Z,100433.44
2018-05-02T00:02:59.852Z,100431.50
2018-05-02T00:05:31.342Z,100430.23
2018-05-02T00:08:02.770Z,100439.97
2018-05-02T00:10:34.319Z,100429.92
2018-05-02T00:13:05.786Z,100429.63
2018-05-02T00:15:37.277Z,100434.75
2018-05-02T00:31:57.470Z,100413.28
2018-05-02T00:34:27.366Z,100427.34
2018-05-02T00:36:56.596Z,100427.11
2018-05-02T00:39:26.490Z,100423.13
2018-05-02T00:41:57.257Z,100424.75
2018-05-02T00:44:27.151Z,100423.44
2018-05-02T00:46:56.374Z,100434.49
2018-05-02T00:49:25.536Z,100435.02
2018-05-02T00:51:55.417Z,100431.16
2018-05-02T00:54:25.311Z,100438.83
2018-05-02T00:56:54.430Z,100433.52
2018-05-02T00:59:23.541Z,100435.62
2018-05-02T01:01:52.654Z,100433.20
2018-05-02T01:04:22.012Z,100432.55
2018-05-02T01:06:51.963Z,100432.05
2018-05-02T01:09:21.115Z,100420.87
2018-05-02T01:11:50.249Z,100424.97
2018-05-02T01:14:19.600Z,100425.23
2018-05-02T01:16:48.712Z,100433.20
2018-05-02T01:19:17.855Z,100430.69
2018-05-02T01:21:46.972Z,100429.97
2018-05-02T01:24:16.078Z,100428.28
2018-05-02T01:26:46.193Z,100430.39
2018-05-02T01:29:15.315Z,100429.16
2018-05-02T01:31:45.234Z,100425.41
2018-05-02T01:34:15.157Z,100422.73
2018-05-02T01:36:45.908Z,100420.31
2018-05-02T01:39:15.050Z,100421.92
2018-05-02T01:41:44.953Z,100430.53
2018-05-02T01:44:14.098Z,100432.63
2018-05-02T01:46:44.020Z,100422.19
2018-05-02T01:49:24.854Z,100431.23
2018-05-02T01:51:54.025Z,100425.14
2018-05-02T01:54:24.538Z,100436.93
2018-05-02T01:56:53.672Z,100435.80
2018-05-02T01:59:22.896Z,100434.46
2018-05-02T02:01:53.071Z,100419.04
2018-05-02T02:04:22.240Z,100401.35
2018-05-02T02:06:51.715Z,100405.20
2018-05-02T02:09:23.665Z,100409.94
2018-05-02T02:11:52.787Z,100403.77
2018-05-02T02:14:22.674Z,100408.67
2018-05-02T02:16:51.818Z,100420.83
2018-05-02T02:19:21.978Z,100416.59
2018-05-02T02:21:51.103Z,100421.39
2018-05-02T02:24:20.993Z,100418.04
2018-05-02T02:26:50.142Z,100420.37
2018-05-02T02:29:19.268Z,100418.69
2018-05-02T02:31:48.415Z,100412.89
2018-05-02T02:34:18.296Z,100407.34
2018-05-02T02:36:47.419Z,100394.44
2018-05-02T02:39:17.339Z,100390.02
2018-05-02T02:41:47.245Z,100405.77
2018-05-02T02:44:16.390Z,100404.71
2018-05-02T02:46:45.853Z,100396.55
2018-05-02T02:49:14.985Z,100394.77
2018-05-02T02:51:44.111Z,100390.45
2018-05-02T02:54:13.238Z,100397.24
2018-05-02T02:56:42.366Z,100392.59
2018-05-02T02:59:11.499Z,100383.50
2018-05-02T03:01:40.621Z,100380.80
2018-05-02T03:04:10.576Z,100381.91
2018-05-02T03:06:39.702Z,100385.56
2018-05-02T03:09:08.848Z,100388.36
2018-05-02T03:11:38.009Z,100390.83
2018-05-02T03:14:07.137Z,100385.09
2018-05-02T03:16:36.306Z,100384.80
2018-05-02T03:19:06.193Z,100383.45
2018-05-02T03:21:35.347Z,100383.05
2018-05-02T03:24:04.495Z,100387.05
2018-05-02T03:26:33.654Z,100383.64
2018-05-02T03:29:02.937Z,100380.21
2018-05-02T03:31:32.653Z,100381.42
2018-05-02T03:34:01.813Z,100375.80
2018-05-02T03:36:30.990Z,100373.70
2018-05-02T03:39:00.883Z,100368.67
2018-05-02T03:41:30.013Z,100367.77
2018-05-02T03:43:59.158Z,100360.26
2018-05-02T03:46:28.316Z,100372.89
2018-05-02T03:48:58.210Z,100374.80
2018-05-02T03:51:27.418Z,100366.11
2018-05-02T03:53:56.537Z,100359.79
2018-05-02T03:56:26.585Z,100366.42
2018-05-02T03:58:55.740Z,100366.91
2018-05-02T04:01:44.230Z,100372.08
2018-05-02T04:04:30.812Z,100369.31
2018-05-02T04:07:15.656Z,100361.64
2018-05-02T04:09:46.407Z,100365.09
2018-05-02T04:12:18.574Z,100369.97
2018-05-02T04:14:47.952Z,100368.41
2018-05-02T04:17:17.929Z,100370.53
2018-05-02T04:19:47.805Z,100364.06
2018-05-02T04:22:16.968Z,100360.09
2018-05-02T04:24:46.853Z,100373.33
2018-05-02T04:27:16.026Z,100382.09
2018-05-02T04:32:10.407Z,100379.52
2018-05-02T04:34:39.647Z,100373.66
2018-05-02T04:37:08.855Z,100381.88
2018-05-02T04:39:38.874Z,100385.87
2018-05-02T04:42:08.073Z,100392.13
2018-05-02T04:44:37.207Z,100392.17
2018-05-02T04:47:07.152Z,100388.59
2018-05-02T04:49:36.311Z,100405.48
2018-05-02T04:52:06.662Z,100404.59
2018-05-02T04:54:36.049Z,100419.13
2018-05-02T04:57:05.950Z,100422.59
2018-05-02T04:59:35.945Z,100411.50
2018-05-02T05:02:05.132Z,100415.70
2018-05-02T05:04:34.274Z,100409.72
2018-05-02T05:07:03.924Z,100403.33
2018-05-02T05:09:33.069Z,100401.81
2018-05-02T05:12:03.042Z,100398.51
2018-05-02T05:14:32.227Z,100393.16
2018-05-02T05:17:01.475Z,100397.63
2018-05-02T05:19:31.406Z,100399.63
2018-05-02T05:22:01.505Z,100403.74
2018-05-02T05:24:32.279Z,100393.77
2018-05-02T05:27:02.379Z,100395.31
2018-05-02T05:29:31.524Z,100394.29
2018-05-02T05:32:00.678Z,100395.18
2018-05-02T05:34:29.831Z,100389.67
2018-05-02T05:36:58.978Z,100396.70
2018-05-02T05:39:28.142Z,100398.78
2018-05-02T05:41:58.786Z,100399.25
2018-05-02T05:44:27.955Z,100411.37
2018-05-02T05:46:57.176Z,100403.61
2018-05-02T05:49:27.097Z,100405.64
2018-05-02T05:51:57.944Z,100404.91
2018-05-02T05:54:27.127Z,100406.73
2018-05-02T05:56:57.054Z,100414.88
2018-05-02T05:59:26.223Z,100417.39
2018-05-02T06:01:56.137Z,100410.80
2018-05-02T06:04:26.046Z,100410.92
2018-05-02T06:06:55.946Z,100412.23
2018-05-02T06:09:25.172Z,100410.06
2018-05-02T06:11:55.992Z,100406.30
2018-05-02T06:14:25.924Z,100411.34
2018-05-02T06:16:55.838Z,100402.75
2018-05-02T06:19:25.019Z,100394.98
2018-05-02T06:21:54.170Z,100402.93
2018-05-02T06:24:23.349Z,100401.45
2018-05-02T06:26:52.562Z,100403.45
2018-05-02T06:29:22.381Z,100408.17
2018-05-02T06:31:51.633Z,100408.17
2018-05-02T06:34:20.683Z,100404.15
2018-05-02T06:36:49.869Z,100407.66
2018-05-02T06:39:19.786Z,100411.09
2018-05-02T06:41:48.938Z,100411.87
2018-05-02T06:44:18.110Z,100402.08
2018-05-02T06:46:48.183Z,100404.70
2018-05-02T06:49:17.369Z,100398.37
2018-05-02T06:51:46.529Z,100388.84
2018-05-02T06:54:16.530Z,100387.98
2018-05-02T06:56:45.681Z,100387.58
2018-05-02T06:59:14.906Z,100376.48
2018-05-02T07:01:44.822Z,100378.37
2018-05-02T07:04:14.732Z,100383.41
2018-05-02T07:06:44.650Z,100378.20
2018-05-02T07:09:14.618Z,100383.02
2018-05-02T07:11:44.533Z,100371.71
2018-05-02T07:14:13.713Z,100371.80
2018-05-02T07:16:42.843Z,100364.68
2018-05-02T07:19:11.973Z,100362.60
2018-05-02T07:21:41.933Z,100356.57
2018-05-02T07:24:11.101Z,100361.67
2018-05-02T07:26:41.028Z,100356.32
2018-05-02T07:29:10.187Z,100350.92
2018-05-02T07:31:39.325Z,100338.11
2018-05-02T07:34:08.499Z,100340.98
2018-05-02T07:36:38.589Z,100336.34
2018-05-02T07:39:07.724Z,100339.81
2018-05-02T07:41:37.751Z,100333.05
2018-05-02T07:44:07.656Z,100330.51
2018-05-02T07:46:37.366Z,100337.94
2018-05-02T07:49:06.558Z,100338.22
2018-05-02T07:51:35.716Z,100334.51
2018-05-02T07:54:04.866Z,100331.52
2018-05-02T07:56:34.802Z,100324.97
2018-05-02T07:59:04.704Z,100325.70
2018-05-02T08:01:33.881Z,100320.29
2018-05-02T08:04:03.810Z,100315.06
2018-05-02T08:06:32.954Z,100324.60
2018-05-02T08:09:02.131Z,100325.97
2018-05-02T08:11:31.266Z,100321.68
2018-05-02T08:14:01.452Z,100318.86
2018-05-02T08:16:30.619Z,100324.22
2018-05-02T08:18:59.776Z,100317.17
2018-05-02T08:21:28.948Z,100314.38
2018-05-02T08:23:58.094Z,100312.55
2018-05-02T08:26:27.266Z,100310.02
2018-05-02T08:28:57.181Z,100306.94
2018-05-02T08:31:27.102Z,100308.67
2018-05-02T08:33:56.235Z,100302.91
2018-05-02T08:36:25.440Z,100304.26
2018-05-02T08:38:54.660Z,100302.47
2018-05-02T08:41:23.763Z,100303.92
2018-05-02T08:43:53.919Z,100306.06
2018-05-02T08:46:23.201Z,100301.09
2018-05-02T08:48:52.305Z,100298.13
2018-05-02T08:51:22.230Z,100298.05
2018-05-02T08:53:51.396Z,100300.22
2018-05-02T08:56:21.533Z,100296.33
2018-05-02T08:58:51.482Z,100285.84
2018-05-02T09:01:20.649Z,100288.75
2018-05-02T09:03:50.652Z,100285.34
2018-05-02T09:06:19.789Z,100284.05
2018-05-02T09:08:49.081Z,100282.94
2018-05-02T09:11:18.221Z,100284.12
2018-05-02T09:13:47.418Z,100273.64
2018-05-02T09:16:16.549Z,100276.25
2018-05-02T09:18:46.744Z,100273.51
2018-05-02T09:21:16.034Z,100271.05
2018-05-02T09:23:45.271Z,100274.39
2018-05-02T09:26:15.212Z,100280.64
2018-05-02T09:28:44.373Z,100271.39
2018-05-02T09:31:14.374Z,100277.03
2018-05-02T09:33:43.604Z,100270.33
2018-05-02T09:36:12.826Z,100271.02
2018-05-02T09:38:42.736Z,100267.47
2018-05-02T09:41:12.660Z,100265.29
2018-05-02T09:43:42.606Z,100263.53
2018-05-02T09:46:11.762Z,100261.17
2018-05-02T09:48:41.680Z,100264.06
2018-05-02T09:51:10.821Z,100254.65
2018-05-02T09:53:40.407Z,100255.11
2018-05-02T09:56:09.537Z,100247.99
2018-05-02T09:58:38.700Z,100251.97
2018-05-02T10:01:07.914Z,100248.06
2018-05-02T10:03:37.864Z,100249.33
2018-05-02T10:06:07.033Z,100246.73
2018-05-02T10:08:36.184Z,100242.75
2018-05-02T10:11:06.080Z,100243.70
2018-05-02T10:13:35.233Z,100243.58
2018-05-02T10:16:04.363Z,100242.30
2018-05-02T10:18:33.590Z,100235.58
2018-05-02T10:21:02.895Z,100231.86
2018-05-02T10:23:33.454Z,100241.76
2018-05-02T10:26:02.622Z,100232.09
2018-05-02T10:28:32.670Z,100228.60
2018-05-02T10:31:01.875Z,100229.54
2018-05-02T10:33:31.009Z,100226.72
2018-05-02T10:36:01.862Z,100228.48
2018-05-02T10:38:31.578Z,100215.75
2018-05-02T10:41:02.420Z,100212.02
2018-05-02T10:43:32.356Z,100213.09
2018-05-02T10:46:01.513Z,100210.47
2018-05-02T10:48:30.698Z,100210.03
2018-05-02T10:50:59.889Z,100205.95
2018-05-02T10:53:29.385Z,100197.73
2018-05-02T10:55:58.671Z,100195.05
2018-05-02T10:58:27.837Z,100189.28
2018-05-02T11:00:57.745Z,100184.41
2018-05-02T11:03:26.904Z,100183.54
2018-05-02T11:05:56.043Z,100178.41
2018-05-02T11:08:25.372Z,100176.51
2018-05-02T11:10:54.485Z,100177.33
2018-05-02T11:13:24.501Z,100169.95
2018-05-02T11:15:54.421Z,100173.35
2018-05-02T11:18:24.350Z,100158.36
2018-05-02T11:20:54.262Z,100161.91
2018-05-02T11:23:23.470Z,100167.56
2018-05-02T11:25:52.639Z,100158.02
2018-05-02T11:28:22.550Z,100153.63
2018-05-02T11:30:52.477Z,100156.34
2018-05-02T11:33:22.399Z,100156.17
2018-05-02T11:35:51.547Z,100147.26
2018-05-02T11:38:20.707Z,100142.48
2018-05-02T11:40:50.079Z,100140.48
2018-05-02T11:43:20.003Z,100135.44
2018-05-02T11:45:49.164Z,100141.10
2018-05-02T11:48:18.324Z,100139.27
2018-05-02T11:50:47.462Z,100145.98
2018-05-02T11:53:16.627Z,100140.77
2018-05-02T11:55:45.785Z,100137.47
2018-05-02T11:58:14.955Z,100139.03
2018-05-02T12:00:44.105Z,100135.98
2018-05-02T12:03:13.526Z,100136.58
2018-05-02T12:05:42.716Z,100130.69
2018-05-02T12:08:11.875Z,100138.27
2018-05-02T12:10:41.777Z,100135.19
2018-05-02T12:13:11.898Z,100133.45
2018-05-02T12:15:41.048Z,100135.19
2018-05-02T12:18:11.221Z,100128.45
2018-05-02T12:20:41.119Z,100122.84
2018-05-02T12:23:10.254Z,100130.19
2018-05-02T12:25:39.882Z,100119.57
2018-05-02T12:28:09.027Z,100115.15
2018-05-02T12:30:38.998Z,100118.75
2018-05-02T12:33:08.163Z,100107.34
2018-05-02T12:35:37.303Z,100108.90
2018-05-02T12:38:06.446Z,100103.01
2018-05-02T12:40:36.474Z,100104.58
2018-05-02T12:43:06.373Z,100102.00
2018-05-02T12:45:36.298Z,100101.90
2018-05-02T12:48:06.978Z,100098.84
2018-05-02T12:50:36.126Z,100097.53
2018-05-02T12:53:06.554Z,100099.34
2018-05-02T12:55:36.777Z,100100.95
2018-05-02T12:58:06.736Z,100096.95
2018-05-02T13:00:35.891Z,100095.55
2018-05-02T13:03:05.083Z,100097.98
2018-05-02T13:05:35.106Z,100088.47
2018-05-02T13:08:04.290Z,100095.77
2018-05-02T13:10:33.448Z,100088.54
2018-05-02T13:13:02.604Z,100080.80
2018-05-02T13:15:32.543Z,100077.37
2018-05-02T13:18:01.681Z,100073.33
2018-05-02T13:20:30.889Z,100070.19
2018-05-02T13:23:00.043Z,100065.90
2018-05-02T13:25:29.975Z,100065.50
2018-05-02T13:27:59.422Z,100069.20
2018-05-02T13:30:29.344Z,100067.70
2018-05-02T13:32:59.245Z,100068.51
2018-05-02T13:35:29.199Z,100059.61
2018-05-02T13:37:58.358Z,100056.31
2018-05-02T13:40:28.279Z,100045.74
2018-05-02T13:42:58.217Z,100040.19
2018-05-02T13:45:28.202Z,100038.09
2018-05-02T13:47:58.132Z,100034.90
2018-05-02T13:50:28.036Z,100029.67
2018-05-02T13:52:57.992Z,100024.70
2018-05-02T13:55:27.919Z,100022.84
2018-05-02T13:57:57.071Z,100022.44
2018-05-02T14:00:26.996Z,100017.52
2018-05-02T14:02:56.157Z,100013.93
2018-05-02T14:05:25.334Z,100002.75
2018-05-02T14:07:54.479Z,100006.87
2018-05-02T14:10:23.624Z,100006.92
2018-05-02T14:12:52.770Z,99999.23
2018-05-02T14:15:22.678Z,100002.52
2018-05-02T14:17:52.620Z,100008.11
2018-05-02T14:20:22.780Z,99999.81
2018-05-02T14:22:51.913Z,99993.31
2018-05-02T14:25:21.837Z,99995.14
2018-05-02T14:27:51.785Z,99981.75
2018-05-02T14:30:27.105Z,99990.41
2018-05-02T14:33:01.713Z,99990.83
2018-05-02T14:35:37.102Z,99989.25
2018-05-02T14:38:06.316Z,99987.45
2018-05-02T14:40:35.481Z,99980.16
2018-05-02T14:43:04.632Z,99973.51
2018-05-02T14:45:34.805Z,99977.12
2018-05-02T14:48:03.980Z,99976.13
2018-05-02T14:50:33.129Z,99982.53
2018-05-02T14:53:02.313Z,99985.04
2018-05-02T14:55:33.255Z,99982.12
2018-05-02T14:58:02.412Z,99977.55
2018-05-02T15:00:31.560Z,99980.44
2018-05-02T15:03:01.719Z,99981.47
2018-05-02T15:05:30.883Z,99986.99
2018-05-02T15:08:00.028Z,99983.66
2018-05-02T15:10:29.173Z,99984.27
2018-05-02T15:12:58.381Z,99983.25
2018-05-02T15:15:28.254Z,99980.00
2018-05-02T15:17:57.485Z,99979.90
2018-05-02T15:20:26.550Z,99974.17
2018-05-02T15:22:56.729Z,99980.06
2018-05-02T15:25:26.044Z,99979.20
2018-05-02T15:27:56.016Z,99981.55
2018-05-02T15:30:25.159Z,99982.34
2018-05-02T15:32:54.324Z,99984.64
2018-05-02T15:35:23.496Z,99987.97
2018-05-02T15:37:52.623Z,99987.02
2018-05-02T15:40:22.574Z,99989.36
2018-05-02T15:42:51.726Z,99989.14
2018-05-02T15:45:21.666Z,99988.94
2018-05-02T15:47:51.886Z,99990.70
2018-05-02T15:50:21.816Z,99993.41
2018-05-02T15:52:51.020Z,99996.00
2018-05-02T15:55:20.155Z,100000.27
2018-05-02T15:57:49.304Z,99998.88
2018-05-02T16:00:18.469Z,99994.27
2018-05-02T16:02:47.667Z,99999.91
2018-05-02T16:05:16.833Z,99992.30
2018-05-02T16:07:47.263Z,99992.48
2018-05-02T16:10:16.480Z,99993.16
2018-05-02T16:12:46.457Z,99992.56
2018-05-02T16:15:15.606Z,99989.23
2018-05-02T16:17:44.772Z,99993.93
2018-05-02T16:20:14.682Z,99990.83
2018-05-02T16:22:43.848Z,99988.94
2018-05-02T16:25:13.038Z,99990.61
2018-05-02T16:27:42.237Z,99995.10
2018-05-02T16:30:12.166Z,100001.70
2018-05-02T16:32:41.347Z,99994.63
2018-05-02T16:35:10.573Z,99993.84
2018-05-02T16:37:39.704Z,99998.72
2018-05-02T16:40:09.627Z,100009.63
2018-05-02T16:42:40.707Z,100006.67
2018-05-02T16:45:09.913Z,100002.67
2018-05-02T16:47:39.117Z,100002.55
2018-05-02T16:50:09.019Z,100002.06
2018-05-02T16:52:38.197Z,100001.55
2018-05-02T16:55:07.357Z,100006.31
2018-05-02T16:57:38.258Z,99996.28
2018-05-02T17:00:08.181Z,100000.25
2018-05-02T17:02:37.338Z,100002.81
2018-05-02T17:05:06.500Z,100008.64
2018-05-02T17:07:36.457Z,100008.70
2018-05-02T17:10:05.712Z,100004.55
2018-05-02T17:12:34.844Z,100008.69
2018-05-02T17:15:04.029Z,100020.97
2018-05-02T17:17:34.008Z,100017.44
2018-05-02T17:20:03.150Z,100016.01
2018-05-02T17:22:32.312Z,100019.03
2018-05-02T17:25:02.220Z,100015.89
2018-05-02T17:27:31.374Z,100028.72
2018-05-02T17:30:00.590Z,100027.69
2018-05-02T17:32:29.776Z,100022.59
2018-05-02T17:34:59.702Z,100024.34
2018-05-02T17:37:28.866Z,100023.11
2018-05-02T17:39:58.047Z,100023.97
2018-05-02T17:42:27.996Z,100027.65
2018-05-02T17:44:57.157Z,100027.98
2018-05-02T17:47:26.707Z,100038.77
2018-05-02T17:49:55.847Z,100028.16
2018-05-02T17:52:25.025Z,100028.38
2018-05-02T17:54:54.225Z,100030.17
2018-05-02T17:57:23.380Z,100039.52
2018-05-02T17:59:53.593Z,100040.27
2018-05-02T18:02:22.755Z,100043.65
2018-05-02T18:04:52.791Z,100041.77
2018-05-02T18:07:23.084Z,100042.52
2018-05-02T18:09:52.275Z,100046.11
2018-05-02T18:12:21.478Z,100051.82
2018-05-02T18:14:50.695Z,100049.92
2018-05-02T18:17:20.612Z,100053.59
2018-05-02T18:19:50.587Z,100058.30
2018-05-02T18:22:19.731Z,100057.55
2018-05-02T18:24:49.673Z,100063.52
2018-05-02T18:27:18.836Z,100064.66
2018-05-02T18:29:48.745Z,100066.39
2018-05-02T18:32:18.667Z,100062.22
2018-05-02T18:34:48.636Z,100070.05
2018-05-02T18:37:17.839Z,100074.27
2018-05-02T18:39:47.931Z,100077.09
2018-05-02T18:42:17.216Z,100072.79
2018-05-02T18:44:48.064Z,100080.87
2018-05-02T18:47:17.260Z,100082.92
2018-05-02T18:49:47.335Z,100089.56
2018-05-02T18:52:16.551Z,100084.25
2018-05-02T18:54:45.736Z,100088.33
2018-05-02T18:57:14.908Z,100088.24
2018-05-02T18:59:44.090Z,100092.53
2018-05-02T19:02:14.043Z,100088.05
2018-05-02T19:04:44.228Z,100086.98
2018-05-02T19:07:13.395Z,100090.95
2018-05-02T19:09:43.404Z,100092.67
2018-05-02T19:12:13.385Z,100094.80
2018-05-02T19:14:43.288Z,100099.95
2018-05-02T19:17:12.441Z,100099.06
2018-05-02T19:19:47.124Z,100092.80
2018-05-02T19:22:16.300Z,100098.16
2018-05-02T19:24:50.928Z,100099.38
2018-05-02T19:27:20.106Z,100100.45
2018-05-02T19:29:49.315Z,100098.41
2018-05-02T19:32:24.684Z,100100.55
2018-05-02T19:34:53.870Z,100100.94
2018-05-02T19:37:23.059Z,100105.74
2018-05-02T19:39:57.665Z,100100.28
2018-05-02T19:45:28.220Z,100101.67
2018-05-02T19:47:57.400Z,100104.75
2018-05-02T19:50:26.805Z,100100.95
2018-05-02T19:52:55.978Z,100093.38
2018-05-02T19:55:25.881Z,100091.97
2018-05-02T19:57:55.050Z,100090.61
2018-05-02T20:00:30.507Z,100089.53
2018-05-02T20:03:02.165Z,100093.61
2018-05-02T20:05:32.275Z,100091.17
2018-05-02T20:08:01.434Z,100091.73
2018-05-02T20:10:35.938Z,100091.77
2018-05-02T20:13:11.728Z,100092.47
2018-05-02T20:15:41.235Z,100085.00
2018-05-02T20:18:10.377Z,100091.34
2018-05-02T20:20:40.828Z,100085.66
2018-05-02T20:23:10.744Z,100085.36
2018-05-02T20:25:39.918Z,100087.78
2018-05-02T20:28:10.163Z,100076.92
2018-05-02T20:30:39.337Z,100080.50
2018-05-02T20:33:09.267Z,100078.23
2018-05-02T20:35:40.315Z,100078.98
2018-05-02T20:38:09.538Z,100080.69
2018-05-02T20:40:38.690Z,100087.70
2018-05-02T20:43:08.654Z,100088.22
2018-05-02T20:45:38.608Z,100089.83
2018-05-02T20:48:07.790Z,100087.72
2018-05-02T20:50:36.945Z,100090.48
2018-05-02T20:53:06.099Z,100091.69
2018-05-02T20:55:36.142Z,100093.91
2018-05-02T20:58:06.078Z,100096.23
2018-05-02T21:00:36.030Z,100095.70
2018-05-02T21:03:05.198Z,100106.85
2018-05-02T21:05:34.361Z,100105.14
2018-05-02T21:08:04.279Z,100102.28
2018-05-02T21:10:33.439Z,100105.08
2018-05-02T21:13:02.904Z,100101.70
2018-05-02T21:15:32.082Z,100106.53
2018-05-02T21:18:01.999Z,100111.76
2018-05-02T21:20:31.157Z,100103.26
2018-05-02T21:23:01.074Z,100104.25
2018-05-02T21:25:30.254Z,100101.42
2018-05-02T21:27:59.415Z,100103.23
2018-05-02T21:30:28.535Z,100110.00
2018-05-02T21:32:57.705Z,100103.58
2018-05-02T21:35:26.846Z,100113.79
2018-05-02T21:37:56.786Z,100116.31
2018-05-02T21:40:26.962Z,100111.12
2018-05-02T21:42:57.062Z,100122.42
2018-05-02T21:45:26.182Z,100117.56
2018-05-02T21:47:55.391Z,100116.56
2018-05-02T21:50:24.534Z,100123.05
2018-05-02T21:52:55.513Z,100123.22
2018-05-02T21:55:24.656Z,100123.63
2018-05-02T21:57:53.792Z,100121.61
2018-05-02T22:00:22.946Z,100125.95
2018-05-02T22:02:52.603Z,100121.95
2018-05-02T22:05:21.759Z,100129.49
2018-05-02T22:07:52.757Z,100140.20
2018-05-02T22:10:22.686Z,100140.13
2018-05-02T22:12:51.833Z,100143.94
2018-05-02T22:15:21.791Z,100141.20
2018-05-02T22:17:51.953Z,100145.03
2018-05-02T22:20:21.834Z,100142.16
2018-05-02T22:22:51.011Z,100142.45
2018-05-02T22:25:20.164Z,100139.47
2018-05-02T22:27:50.094Z,100139.53
2018-05-02T22:30:20.070Z,100140.16
2018-05-02T22:32:49.220Z,100141.37
2018-05-02T22:35:19.167Z,100144.22
2018-05-02T22:37:48.309Z,100142.06
2018-05-02T22:40:18.764Z,100148.44
2018-05-02T22:42:47.881Z,100147.30
2018-05-02T22:45:17.052Z,100146.85
2018-05-02T22:47:46.230Z,100146.64
2018-05-02T22:50:16.141Z,100146.70
2018-05-02T22:52:46.030Z,100146.73
2018-05-02T22:55:15.196Z,100149.09
2018-05-02T22:57:44.356Z,100150.33
2018-05-02T23:00:14.254Z,100153.27
2018-05-02T23:02:44.198Z,100155.43
2018-05-02T23:05:13.326Z,100157.31
2018-05-02T23:07:42.481Z,100162.60
2018-05-02T23:10:11.665Z,100159.47
2018-05-02T23:12:41.771Z,100165.64
2018-05-02T23:15:10.915Z,100160.62
2018-05-02T23:17:40.054Z,100162.11
2018-05-02T23:20:09.206Z,100167.81
2018-05-02T23:22:38.337Z,100161.15
2018-05-02T23:25:07.488Z,100171.54
2018-05-02T23:27:36.640Z,100167.75
2018-05-02T23:30:06.999Z,100164.05
2018-05-02T23:32:36.915Z,100163.22
2018-05-02T23:35:06.811Z,100161.84
2018-05-02T23:37:36.746Z,100165.30
2018-05-02T23:40:06.645Z,100168.94
2018-05-02T23:42:36.553Z,100169.67
2018-05-02T23:45:06.478Z,100168.84
2018-05-02T23:47:36.393Z,100168.31
2018-05-02T23:50:06.310Z,100166.33
2018-05-02T23:52:36.221Z,100173.31
2018-05-02T23:55:06.134Z,100166.55
2018-05-02T23:57:36.035Z,100173.27
